sensor_id;sensor_type;location;lat;lon;timestamp;P1;durP1;ratioP1;P2;durP2;ratioP2
73239;SDS011;61452;40.054;4.110;2023-09-18T00:02:15;27.23;;;7.82;;
73239;SDS011;61452;40.054;4.110;2023-09-18T00:07:17;29.08;;;7.88;;
73239;SDS011;61452;40.054;4.110;2023-09-18T00:12:19;30.67;;;7.35;;
73239;SDS011;61452;40.054;4.110;2023-09-18T00:17:22;24.92;;;7.47;;
73239;SDS011;61452;40.054;4.110;2023-09-18T00:22:25;24.05;;;6.45;;
73239;SDS011;61452;40.054;4.110;2023-09-18T00:27:28;20.77;;;6.88;;
73239;SDS011;61452;40.054;4.110;2023-09-18T00:32:30;20.80;;;6.30;;
73239;SDS011;61452;40.054;4.110;2023-09-18T00:37:34;25.45;;;7.43;;
73239;SDS011;61452;40.054;4.110;2023-09-18T00:42:38;23.95;;;7.28;;
73239;SDS011;61452;40.054;4.110;2023-09-18T00:47:40;18.10;;;6.47;;
73239;SDS011;61452;40.054;4.110;2023-09-18T00:52:43;23.17;;;6.88;;
73239;SDS011;61452;40.054;4.110;2023-09-18T00:57:45;25.05;;;6.72;;
73239;SDS011;61452;40.054;4.110;2023-09-18T01:02:48;20.75;;;7.18;;
73239;SDS011;61452;40.054;4.110;2023-09-18T01:07:51;20.25;;;7.43;;
73239;SDS011;61452;40.054;4.110;2023-09-18T01:12:59;18.50;;;6.70;;
73239;SDS011;61452;40.054;4.110;2023-09-18T01:18:08;24.88;;;6.63;;
73239;SDS011;61452;40.054;4.110;2023-09-18T01:23:11;20.75;;;7.57;;
73239;SDS011;61452;40.054;4.110;2023-09-18T01:28:15;23.27;;;7.10;;
73239;SDS011;61452;40.054;4.110;2023-09-18T01:33:18;18.02;;;6.10;;
73239;SDS011;61452;40.054;4.110;2023-09-18T01:38:23;19.40;;;6.13;;
73239;SDS011;61452;40.054;4.110;2023-09-18T01:43:26;21.42;;;6.78;;
73239;SDS011;61452;40.054;4.110;2023-09-18T01:48:28;19.30;;;6.00;;
73239;SDS011;61452;40.054;4.110;2023-09-18T01:53:32;18.60;;;6.32;;
73239;SDS011;61452;40.054;4.110;2023-09-18T01:58:35;18.02;;;6.10;;
73239;SDS011;61452;40.054;4.110;2023-09-18T02:09:03;13.05;;;5.88;;
73239;SDS011;61452;40.054;4.110;2023-09-18T02:14:06;18.60;;;6.63;;
73239;SDS011;61452;40.054;4.110;2023-09-18T02:19:09;16.02;;;5.72;;
73239;SDS011;61452;40.054;4.110;2023-09-18T02:24:12;12.73;;;5.63;;
73239;SDS011;61452;40.054;4.110;2023-09-18T02:29:14;16.73;;;5.90;;
73239;SDS011;61452;40.054;4.110;2023-09-18T02:34:17;17.80;;;6.10;;
73239;SDS011;61452;40.054;4.110;2023-09-18T02:39:21;18.27;;;5.75;;
73239;SDS011;61452;40.054;4.110;2023-09-18T02:44:24;17.13;;;5.70;;
73239;SDS011;61452;40.054;4.110;2023-09-18T02:49:26;19.05;;;6.22;;
73239;SDS011;61452;40.054;4.110;2023-09-18T02:54:29;16.80;;;6.00;;
73239;SDS011;61452;40.054;4.110;2023-09-18T02:59:31;16.70;;;5.43;;
73239;SDS011;61452;40.054;4.110;2023-09-18T03:04:34;15.10;;;5.55;;
73239;SDS011;61452;40.054;4.110;2023-09-18T03:09:37;17.20;;;6.18;;
73239;SDS011;61452;40.054;4.110;2023-09-18T03:14:40;14.55;;;6.43;;
73239;SDS011;61452;40.054;4.110;2023-09-18T03:19:42;16.75;;;5.60;;
73239;SDS011;61452;40.054;4.110;2023-09-18T03:24:45;18.08;;;5.10;;
73239;SDS011;61452;40.054;4.110;2023-09-18T03:29:48;16.27;;;5.28;;
73239;SDS011;61452;40.054;4.110;2023-09-18T03:34:50;17.83;;;5.70;;
73239;SDS011;61452;40.054;4.110;2023-09-18T03:44:55;12.43;;;5.10;;
73239;SDS011;61452;40.054;4.110;2023-09-18T03:49:58;15.07;;;5.00;;
73239;SDS011;61452;40.054;4.110;2023-09-18T03:55:00;13.23;;;5.13;;
73239;SDS011;61452;40.054;4.110;2023-09-18T04:00:04;18.17;;;6.00;;
73239;SDS011;61452;40.054;4.110;2023-09-18T04:05:12;15.80;;;5.82;;
73239;SDS011;61452;40.054;4.110;2023-09-18T04:10:14;13.50;;;6.07;;
73239;SDS011;61452;40.054;4.110;2023-09-18T04:15:22;16.02;;;5.70;;
73239;SDS011;61452;40.054;4.110;2023-09-18T04:20:25;12.77;;;5.05;;
73239;SDS011;61452;40.054;4.110;2023-09-18T04:25:29;14.35;;;5.22;;
73239;SDS011;61452;40.054;4.110;2023-09-18T04:30:33;15.77;;;5.80;;
73239;SDS011;61452;40.054;4.110;2023-09-18T04:35:35;16.27;;;5.20;;
73239;SDS011;61452;40.054;4.110;2023-09-18T04:40:38;13.23;;;5.63;;
73239;SDS011;61452;40.054;4.110;2023-09-18T04:45:43;16.27;;;5.20;;
73239;SDS011;61452;40.054;4.110;2023-09-18T04:50:48;14.15;;;5.43;;
73239;SDS011;61452;40.054;4.110;2023-09-18T04:55:51;11.85;;;5.82;;
73239;SDS011;61452;40.054;4.110;2023-09-18T05:00:54;14.40;;;5.38;;
73239;SDS011;61452;40.054;4.110;2023-09-18T05:05:58;17.35;;;5.93;;
73239;SDS011;61452;40.054;4.110;2023-09-18T05:11:00;18.30;;;5.40;;
73239;SDS011;61452;40.054;4.110;2023-09-18T05:16:02;16.38;;;5.35;;
73239;SDS011;61452;40.054;4.110;2023-09-18T05:21:05;16.58;;;5.43;;
73239;SDS011;61452;40.054;4.110;2023-09-18T05:26:07;17.48;;;5.80;;
73239;SDS011;61452;40.054;4.110;2023-09-18T05:31:10;21.80;;;5.78;;
73239;SDS011;61452;40.054;4.110;2023-09-18T05:36:12;21.48;;;6.60;;
73239;SDS011;61452;40.054;4.110;2023-09-18T05:41:16;21.50;;;5.90;;
73239;SDS011;61452;40.054;4.110;2023-09-18T05:46:18;22.35;;;6.50;;
73239;SDS011;61452;40.054;4.110;2023-09-18T05:51:21;22.00;;;6.55;;
73239;SDS011;61452;40.054;4.110;2023-09-18T05:56:23;26.25;;;6.88;;
73239;SDS011;61452;40.054;4.110;2023-09-18T06:01:26;26.52;;;7.10;;
73239;SDS011;61452;40.054;4.110;2023-09-18T06:06:28;24.23;;;7.07;;
73239;SDS011;61452;40.054;4.110;2023-09-18T06:11:30;24.60;;;6.35;;
73239;SDS011;61452;40.054;4.110;2023-09-18T06:16:32;22.42;;;6.60;;
73239;SDS011;61452;40.054;4.110;2023-09-18T06:21:35;21.50;;;6.55;;
73239;SDS011;61452;40.054;4.110;2023-09-18T06:26:37;32.67;;;7.38;;
73239;SDS011;61452;40.054;4.110;2023-09-18T06:31:39;26.10;;;7.20;;
73239;SDS011;61452;40.054;4.110;2023-09-18T06:36:42;26.52;;;7.22;;
73239;SDS011;61452;40.054;4.110;2023-09-18T06:41:44;23.38;;;7.00;;
73239;SDS011;61452;40.054;4.110;2023-09-18T06:46:46;29.50;;;7.00;;
73239;SDS011;61452;40.054;4.110;2023-09-18T06:51:49;27.45;;;7.30;;
73239;SDS011;61452;40.054;4.110;2023-09-18T06:56:51;24.00;;;6.55;;
73239;SDS011;61452;40.054;4.110;2023-09-18T07:01:53;34.53;;;7.40;;
73239;SDS011;61452;40.054;4.110;2023-09-18T07:06:55;26.40;;;6.97;;
73239;SDS011;61452;40.054;4.110;2023-09-18T07:11:58;19.88;;;6.05;;
73239;SDS011;61452;40.054;4.110;2023-09-18T07:17:00;26.92;;;6.82;;
73239;SDS011;61452;40.054;4.110;2023-09-18T07:22:03;27.15;;;6.57;;
73239;SDS011;61452;40.054;4.110;2023-09-18T07:27:05;18.77;;;6.55;;
73239;SDS011;61452;40.054;4.110;2023-09-18T07:32:07;28.77;;;6.72;;
73239;SDS011;61452;40.054;4.110;2023-09-18T07:37:11;22.05;;;6.65;;
73239;SDS011;61452;40.054;4.110;2023-09-18T07:42:13;19.75;;;6.75;;
73239;SDS011;61452;40.054;4.110;2023-09-18T07:47:16;23.17;;;6.15;;
73239;SDS011;61452;40.054;4.110;2023-09-18T07:52:18;21.75;;;6.28;;
73239;SDS011;61452;40.054;4.110;2023-09-18T07:57:21;27.17;;;6.82;;
73239;SDS011;61452;40.054;4.110;2023-09-18T08:02:24;16.70;;;5.95;;
73239;SDS011;61452;40.054;4.110;2023-09-18T08:07:27;18.48;;;5.93;;
73239;SDS011;61452;40.054;4.110;2023-09-18T08:12:30;20.45;;;6.18;;
73239;SDS011;61452;40.054;4.110;2023-09-18T08:17:32;15.20;;;5.55;;
73239;SDS011;61452;40.054;4.110;2023-09-18T08:22:34;17.67;;;6.38;;
73239;SDS011;61452;40.054;4.110;2023-09-18T08:27:38;21.77;;;5.88;;
73239;SDS011;61452;40.054;4.110;2023-09-18T08:32:46;12.93;;;4.68;;
73239;SDS011;61452;40.054;4.110;2023-09-18T08:37:49;18.25;;;5.10;;
73239;SDS011;61452;40.054;4.110;2023-09-18T08:42:52;15.57;;;4.97;;
73239;SDS011;61452;40.054;4.110;2023-09-18T08:47:57;16.80;;;5.25;;
73239;SDS011;61452;40.054;4.110;2023-09-18T08:53:01;14.63;;;5.25;;
73239;SDS011;61452;40.054;4.110;2023-09-18T08:58:07;14.48;;;5.45;;
73239;SDS011;61452;40.054;4.110;2023-09-18T09:03:12;16.38;;;4.28;;
73239;SDS011;61452;40.054;4.110;2023-09-18T09:08:15;24.13;;;5.72;;
73239;SDS011;61452;40.054;4.110;2023-09-18T09:13:17;18.13;;;4.43;;
73239;SDS011;61452;40.054;4.110;2023-09-18T09:18:49;15.95;;;4.78;;
73239;SDS011;61452;40.054;4.110;2023-09-18T09:23:53;14.70;;;4.60;;
73239;SDS011;61452;40.054;4.110;2023-09-18T09:28:57;16.08;;;4.82;;
73239;SDS011;61452;40.054;4.110;2023-09-18T09:34:24;15.15;;;4.55;;
73239;SDS011;61452;40.054;4.110;2023-09-18T09:39:28;13.38;;;4.75;;
73239;SDS011;61452;40.054;4.110;2023-09-18T09:44:32;12.32;;;4.38;;
73239;SDS011;61452;40.054;4.110;2023-09-18T09:54:49;17.85;;;4.85;;
73239;SDS011;61452;40.054;4.110;2023-09-18T09:59:52;12.30;;;4.57;;
73239;SDS011;61452;40.054;4.110;2023-09-18T10:05:15;11.55;;;4.25;;
73239;SDS011;61452;40.054;4.110;2023-09-18T10:10:20;16.40;;;4.55;;
73239;SDS011;61452;40.054;4.110;2023-09-18T10:15:23;14.00;;;4.43;;
73239;SDS011;61452;40.054;4.110;2023-09-18T10:20:26;11.02;;;4.10;;
73239;SDS011;61452;40.054;4.110;2023-09-18T10:25:31;15.85;;;4.60;;
73239;SDS011;61452;40.054;4.110;2023-09-18T10:30:33;11.50;;;4.07;;
73239;SDS011;61452;40.054;4.110;2023-09-18T10:35:38;14.88;;;4.15;;
73239;SDS011;61452;40.054;4.110;2023-09-18T10:40:43;15.00;;;4.80;;
73239;SDS011;61452;40.054;4.110;2023-09-18T10:45:48;11.93;;;3.50;;
73239;SDS011;61452;40.054;4.110;2023-09-18T10:50:53;12.52;;;4.00;;
73239;SDS011;61452;40.054;4.110;2023-09-18T10:55:55;11.13;;;3.08;;
73239;SDS011;61452;40.054;4.110;2023-09-18T11:00:59;10.35;;;3.05;;
73239;SDS011;61452;40.054;4.110;2023-09-18T11:06:02;13.20;;;2.50;;
73239;SDS011;61452;40.054;4.110;2023-09-18T11:11:13;8.38;;;2.33;;
73239;SDS011;61452;40.054;4.110;2023-09-18T11:21:30;10.55;;;2.08;;
73239;SDS011;61452;40.054;4.110;2023-09-18T11:26:34;10.00;;;2.63;;
73239;SDS011;61452;40.054;4.110;2023-09-18T11:36:49;10.10;;;1.80;;
73239;SDS011;61452;40.054;4.110;2023-09-18T11:41:57;6.40;;;2.30;;
73239;SDS011;61452;40.054;4.110;2023-09-18T11:47:09;8.18;;;2.25;;
73239;SDS011;61452;40.054;4.110;2023-09-18T11:52:27;8.40;;;1.75;;
73239;SDS011;61452;40.054;4.110;2023-09-18T11:57:34;6.45;;;1.58;;
73239;SDS011;61452;40.054;4.110;2023-09-18T12:02:37;8.10;;;2.13;;
73239;SDS011;61452;40.054;4.110;2023-09-18T12:07:43;8.07;;;2.55;;
73239;SDS011;61452;40.054;4.110;2023-09-18T12:12:47;5.40;;;2.03;;
73239;SDS011;61452;40.054;4.110;2023-09-18T12:17:53;9.73;;;2.35;;
73239;SDS011;61452;40.054;4.110;2023-09-18T12:22:57;6.55;;;1.95;;
73239;SDS011;61452;40.054;4.110;2023-09-18T12:27:59;7.25;;;2.35;;
73239;SDS011;61452;40.054;4.110;2023-09-18T12:33:01;4.68;;;2.08;;
73239;SDS011;61452;40.054;4.110;2023-09-18T12:38:13;5.10;;;1.70;;
73239;SDS011;61452;40.054;4.110;2023-09-18T12:43:17;8.30;;;2.40;;
73239;SDS011;61452;40.054;4.110;2023-09-18T12:48:19;7.93;;;2.25;;
73239;SDS011;61452;40.054;4.110;2023-09-18T12:53:22;6.72;;;2.72;;
73239;SDS011;61452;40.054;4.110;2023-09-18T12:58:25;7.68;;;2.60;;
73239;SDS011;61452;40.054;4.110;2023-09-18T13:03:27;5.95;;;2.30;;
73239;SDS011;61452;40.054;4.110;2023-09-18T13:08:29;10.25;;;2.88;;
73239;SDS011;61452;40.054;4.110;2023-09-18T13:13:32;10.35;;;3.35;;
73239;SDS011;61452;40.054;4.110;2023-09-18T13:18:34;10.32;;;3.10;;
73239;SDS011;61452;40.054;4.110;2023-09-18T13:23:37;14.73;;;3.42;;
73239;SDS011;61452;40.054;4.110;2023-09-18T13:28:40;10.88;;;3.08;;
73239;SDS011;61452;40.054;4.110;2023-09-18T13:33:42;10.07;;;2.92;;
73239;SDS011;61452;40.054;4.110;2023-09-18T13:38:47;10.65;;;3.20;;
73239;SDS011;61452;40.054;4.110;2023-09-18T13:43:49;9.32;;;2.90;;
73239;SDS011;61452;40.054;4.110;2023-09-18T13:48:56;9.93;;;3.10;;
73239;SDS011;61452;40.054;4.110;2023-09-18T13:53:58;8.10;;;3.08;;
73239;SDS011;61452;40.054;4.110;2023-09-18T13:59:01;7.57;;;3.53;;
73239;SDS011;61452;40.054;4.110;2023-09-18T14:04:03;8.75;;;2.95;;
73239;SDS011;61452;40.054;4.110;2023-09-18T14:09:06;11.63;;;3.03;;
73239;SDS011;61452;40.054;4.110;2023-09-18T14:14:08;9.73;;;3.00;;
73239;SDS011;61452;40.054;4.110;2023-09-18T14:19:10;7.57;;;3.30;;
73239;SDS011;61452;40.054;4.110;2023-09-18T14:24:13;7.43;;;2.72;;
73239;SDS011;61452;40.054;4.110;2023-09-18T14:29:15;9.25;;;3.30;;
73239;SDS011;61452;40.054;4.110;2023-09-18T14:34:17;12.93;;;3.40;;
73239;SDS011;61452;40.054;4.110;2023-09-18T14:39:20;9.40;;;3.20;;
73239;SDS011;61452;40.054;4.110;2023-09-18T14:44:23;7.47;;;3.50;;
73239;SDS011;61452;40.054;4.110;2023-09-18T14:49:25;6.85;;;3.08;;
73239;SDS011;61452;40.054;4.110;2023-09-18T14:54:29;11.63;;;3.20;;
73239;SDS011;61452;40.054;4.110;2023-09-18T14:59:31;12.18;;;3.42;;
73239;SDS011;61452;40.054;4.110;2023-09-18T15:04:43;16.10;;;3.95;;
73239;SDS011;61452;40.054;4.110;2023-09-18T15:09:46;10.68;;;4.10;;
73239;SDS011;61452;40.054;4.110;2023-09-18T15:14:48;14.75;;;2.97;;
73239;SDS011;61452;40.054;4.110;2023-09-18T15:20:09;11.13;;;3.15;;
73239;SDS011;61452;40.054;4.110;2023-09-18T15:25:14;10.50;;;2.97;;
73239;SDS011;61452;40.054;4.110;2023-09-18T15:30:17;10.32;;;3.13;;
73239;SDS011;61452;40.054;4.110;2023-09-18T15:35:19;11.30;;;2.80;;
73239;SDS011;61452;40.054;4.110;2023-09-18T15:45:24;8.27;;;3.03;;
73239;SDS011;61452;40.054;4.110;2023-09-18T15:50:27;7.78;;;2.92;;
73239;SDS011;61452;40.054;4.110;2023-09-18T15:55:30;7.47;;;3.75;;
73239;SDS011;61452;40.054;4.110;2023-09-18T16:00:32;9.40;;;3.55;;
73239;SDS011;61452;40.054;4.110;2023-09-18T16:05:37;7.60;;;3.38;;
73239;SDS011;61452;40.054;4.110;2023-09-18T16:10:39;9.98;;;3.83;;
73239;SDS011;61452;40.054;4.110;2023-09-18T16:15:41;13.45;;;4.40;;
73239;SDS011;61452;40.054;4.110;2023-09-18T16:20:45;11.35;;;4.50;;
73239;SDS011;61452;40.054;4.110;2023-09-18T16:25:47;12.55;;;4.45;;
73239;SDS011;61452;40.054;4.110;2023-09-18T16:30:49;10.60;;;3.63;;
73239;SDS011;61452;40.054;4.110;2023-09-18T16:35:51;9.18;;;3.47;;
73239;SDS011;61452;40.054;4.110;2023-09-18T16:40:54;10.82;;;4.20;;
73239;SDS011;61452;40.054;4.110;2023-09-18T16:45:56;11.57;;;3.85;;
73239;SDS011;61452;40.054;4.110;2023-09-18T16:50:58;9.40;;;4.40;;
73239;SDS011;61452;40.054;4.110;2023-09-18T16:56:01;11.63;;;3.60;;
73239;SDS011;61452;40.054;4.110;2023-09-18T17:01:03;11.90;;;4.18;;
73239;SDS011;61452;40.054;4.110;2023-09-18T17:06:06;8.48;;;3.72;;
73239;SDS011;61452;40.054;4.110;2023-09-18T17:11:08;7.35;;;3.75;;
73239;SDS011;61452;40.054;4.110;2023-09-18T17:16:11;7.93;;;3.45;;
73239;SDS011;61452;40.054;4.110;2023-09-18T17:21:15;9.20;;;3.53;;
73239;SDS011;61452;40.054;4.110;2023-09-18T17:31:20;8.07;;;3.45;;
73239;SDS011;61452;40.054;4.110;2023-09-18T17:36:23;11.30;;;3.92;;
73239;SDS011;61452;40.054;4.110;2023-09-18T17:41:25;9.52;;;3.80;;
73239;SDS011;61452;40.054;4.110;2023-09-18T17:46:29;9.75;;;3.85;;
73239;SDS011;61452;40.054;4.110;2023-09-18T17:51:31;8.82;;;3.80;;
73239;SDS011;61452;40.054;4.110;2023-09-18T17:56:35;7.60;;;3.90;;
73239;SDS011;61452;40.054;4.110;2023-09-18T18:01:38;7.10;;;3.63;;
73239;SDS011;61452;40.054;4.110;2023-09-18T18:06:40;8.85;;;3.33;;
73239;SDS011;61452;40.054;4.110;2023-09-18T18:11:45;8.85;;;3.42;;
73239;SDS011;61452;40.054;4.110;2023-09-18T18:16:47;8.98;;;3.70;;
73239;SDS011;61452;40.054;4.110;2023-09-18T18:21:50;7.78;;;3.97;;
73239;SDS011;61452;40.054;4.110;2023-09-18T18:26:52;6.30;;;3.47;;
73239;SDS011;61452;40.054;4.110;2023-09-18T18:31:55;8.18;;;3.92;;
73239;SDS011;61452;40.054;4.110;2023-09-18T18:36:57;7.50;;;3.50;;
73239;SDS011;61452;40.054;4.110;2023-09-18T18:42:01;7.85;;;3.55;;
73239;SDS011;61452;40.054;4.110;2023-09-18T18:47:03;10.75;;;3.90;;
73239;SDS011;61452;40.054;4.110;2023-09-18T18:52:06;7.47;;;3.47;;
73239;SDS011;61452;40.054;4.110;2023-09-18T18:57:08;8.55;;;3.70;;
73239;SDS011;61452;40.054;4.110;2023-09-18T19:02:11;8.05;;;3.92;;
73239;SDS011;61452;40.054;4.110;2023-09-18T19:07:13;7.03;;;3.05;;
73239;SDS011;61452;40.054;4.110;2023-09-18T19:12:15;7.60;;;3.35;;
73239;SDS011;61452;40.054;4.110;2023-09-18T19:17:17;8.30;;;3.20;;
73239;SDS011;61452;40.054;4.110;2023-09-18T19:22:20;7.10;;;3.90;;
73239;SDS011;61452;40.054;4.110;2023-09-18T19:27:22;9.38;;;3.67;;
73239;SDS011;61452;40.054;4.110;2023-09-18T19:32:25;5.75;;;3.35;;
73239;SDS011;61452;40.054;4.110;2023-09-18T19:37:28;7.35;;;3.75;;
73239;SDS011;61452;40.054;4.110;2023-09-18T19:42:31;7.50;;;4.03;;
73239;SDS011;61452;40.054;4.110;2023-09-18T19:47:33;9.35;;;3.50;;
73239;SDS011;61452;40.054;4.110;2023-09-18T19:52:37;8.05;;;3.75;;
73239;SDS011;61452;40.054;4.110;2023-09-18T19:57:39;6.90;;;3.28;;
73239;SDS011;61452;40.054;4.110;2023-09-18T20:02:42;7.15;;;3.55;;
73239;SDS011;61452;40.054;4.110;2023-09-18T20:07:47;5.85;;;3.47;;
73239;SDS011;61452;40.054;4.110;2023-09-18T20:12:49;6.85;;;3.63;;
73239;SDS011;61452;40.054;4.110;2023-09-18T20:17:52;5.65;;;3.42;;
73239;SDS011;61452;40.054;4.110;2023-09-18T20:22:55;6.82;;;3.13;;
73239;SDS011;61452;40.054;4.110;2023-09-18T20:27:57;7.75;;;3.33;;
73239;SDS011;61452;40.054;4.110;2023-09-18T20:32:59;6.80;;;3.28;;
73239;SDS011;61452;40.054;4.110;2023-09-18T20:38:05;8.07;;;3.53;;
73239;SDS011;61452;40.054;4.110;2023-09-18T20:43:15;6.50;;;3.45;;
73239;SDS011;61452;40.054;4.110;2023-09-18T20:48:18;6.88;;;3.25;;
73239;SDS011;61452;40.054;4.110;2023-09-18T20:53:20;6.40;;;3.08;;
73239;SDS011;61452;40.054;4.110;2023-09-18T20:58:23;7.45;;;3.13;;
73239;SDS011;61452;40.054;4.110;2023-09-18T21:03:26;4.75;;;3.33;;
73239;SDS011;61452;40.054;4.110;2023-09-18T21:08:28;6.95;;;3.13;;
73239;SDS011;61452;40.054;4.110;2023-09-18T21:13:32;10.48;;;3.30;;
73239;SDS011;61452;40.054;4.110;2023-09-18T21:18:34;5.13;;;3.03;;
73239;SDS011;61452;40.054;4.110;2023-09-18T21:23:37;5.82;;;3.20;;
73239;SDS011;61452;40.054;4.110;2023-09-18T21:28:39;7.55;;;3.42;;
73239;SDS011;61452;40.054;4.110;2023-09-18T21:38:47;6.32;;;3.50;;
73239;SDS011;61452;40.054;4.110;2023-09-18T21:43:56;5.80;;;3.40;;
73239;SDS011;61452;40.054;4.110;2023-09-18T21:48:58;5.40;;;3.45;;
73239;SDS011;61452;40.054;4.110;2023-09-18T21:54:00;6.65;;;3.10;;
73239;SDS011;61452;40.054;4.110;2023-09-18T21:59:03;6.75;;;3.63;;
73239;SDS011;61452;40.054;4.110;2023-09-18T22:04:07;8.00;;;3.50;;
73239;SDS011;61452;40.054;4.110;2023-09-18T22:09:13;4.88;;;2.85;;
73239;SDS011;61452;40.054;4.110;2023-09-18T22:14:15;4.75;;;2.70;;
73239;SDS011;61452;40.054;4.110;2023-09-18T22:24:21;4.63;;;2.92;;
73239;SDS011;61452;40.054;4.110;2023-09-18T22:29:23;5.68;;;3.13;;
73239;SDS011;61452;40.054;4.110;2023-09-18T22:34:26;5.40;;;2.65;;
73239;SDS011;61452;40.054;4.110;2023-09-18T22:55:57;6.07;;;2.60;;
73239;SDS011;61452;40.054;4.110;2023-09-18T23:01:00;3.58;;;2.60;;
73239;SDS011;61452;40.054;4.110;2023-09-18T23:06:05;5.18;;;3.20;;
73239;SDS011;61452;40.054;4.110;2023-09-18T23:11:09;5.80;;;2.78;;
73239;SDS011;61452;40.054;4.110;2023-09-18T23:16:11;5.00;;;2.90;;
73239;SDS011;61452;40.054;4.110;2023-09-18T23:21:14;4.15;;;2.40;;
73239;SDS011;61452;40.054;4.110;2023-09-18T23:26:16;4.97;;;2.70;;
73239;SDS011;61452;40.054;4.110;2023-09-18T23:31:21;4.38;;;2.58;;
73239;SDS011;61452;40.054;4.110;2023-09-18T23:36:24;6.05;;;2.60;;
73239;SDS011;61452;40.054;4.110;2023-09-18T23:41:29;6.78;;;3.17;;
73239;SDS011;61452;40.054;4.110;2023-09-18T23:46:51;4.20;;;2.45;;
73239;SDS011;61452;40.054;4.110;2023-09-18T23:51:54;3.80;;;2.33;;
73239;SDS011;61452;40.054;4.110;2023-09-18T23:56:58;5.45;;;2.75;;
